Time;durP1;ratioP1;P1;durP2;ratioP2;P2;SDS_P1;SDS_P2;PMS_P1;PMS_P2;Temp;Humidity;BMP_temperature;BMP_pressure;BME280_temperature;BME280_humidity;BME280_pressure;Samples;Min_cycle;Max_cycle;Signal;HPM_P1;HPM_P2
2021/08/24 00:00:32;;;;;;;21.33;12.13;;;13.90;99.90;;;;;;2072036;28;20038;-73
2021/08/24 00:01:32;;;;;;;20.52;12.38;;;13.90;99.90;;;;;;2071891;28;20069;-73
2021/08/24 00:02:33;;;;;;;22.38;13.35;;;13.90;99.90;;;;;;2080797;28;20400;-73
2021/08/24 00:03:33;;;;;;;18.95;11.85;;;13.90;99.90;;;;;;2080705;28;20064;-73
2021/08/24 00:04:34;;;;;;;16.50;11.00;;;13.90;99.90;;;;;;2080827;28;20025;-73
2021/08/24 00:05:36;;;;;;;16.10;11.07;;;13.90;99.90;;;;;;2080726;28;20038;-73
2021/08/24 00:06:37;;;;;;;25.50;12.30;;;13.90;99.90;;;;;;2080759;28;20033;-73
2021/08/24 00:07:37;;;;;;;19.92;10.48;;;14.00;99.90;;;;;;2080331;28;20104;-73
2021/08/24 00:08:40;;;;;;;20.90;11.65;;;13.90;99.90;;;;;;2080602;28;20428;-73
2021/08/24 00:09:41;;;;;;;19.65;11.43;;;13.90;99.90;;;;;;2080781;28;20045;-73
2021/08/24 00:10:46;;;;;;;15.57;10.25;;;13.90;99.90;;;;;;2080771;28;20108;-74
2021/08/24 00:11:46;;;;;;;16.23;10.30;;;13.90;99.90;;;;;;2080818;28;20021;-74
2021/08/24 00:12:47;;;;;;;21.27;11.52;;;13.90;99.90;;;;;;2080737;28;20029;-74
2021/08/24 00:13:48;;;;;;;28.08;13.13;;;13.90;99.90;;;;;;2080090;28;20101;-73
2021/08/24 00:14:48;;;;;;;22.88;12.07;;;13.90;99.90;;;;;;2080571;28;20389;-73
2021/08/24 00:15:50;;;;;;;25.77;12.40;;;13.90;99.90;;;;;;2080706;28;20071;-73
2021/08/24 00:16:51;;;;;;;24.95;12.27;;;13.90;99.90;;;;;;2080794;28;20025;-73
2021/08/24 00:17:52;;;;;;;23.50;12.63;;;13.90;99.90;;;;;;2080408;28;20539;-73
2021/08/24 00:18:53;;;;;;;20.15;11.02;;;13.90;99.90;;;;;;2080516;28;20029;-73
2021/08/24 00:19:53;;;;;;;22.27;11.75;;;13.90;99.90;;;;;;2080805;28;20445;-73
2021/08/24 00:20:55;;;;;;;20.77;10.90;;;13.90;99.90;;;;;;2080810;28;20037;-73
2021/08/24 00:21:55;;;;;;;15.80;10.23;;;13.90;99.90;;;;;;2080760;28;20064;-73
2021/08/24 00:22:57;;;;;;;21.50;11.15;;;13.90;99.90;;;;;;2080768;28;20046;-73
2021/08/24 00:23:57;;;;;;;27.92;13.13;;;13.90;99.90;;;;;;2080577;28;20031;-73
2021/08/24 00:24:58;;;;;;;19.50;11.00;;;13.80;99.90;;;;;;2080723;28;20033;-73
2021/08/24 00:25:59;;;;;;;20.10;11.20;;;13.80;99.90;;;;;;2080844;28;20089;-73
2021/08/24 00:27:00;;;;;;;15.32;10.57;;;13.80;99.90;;;;;;2080715;28;20510;-74
2021/08/24 00:28:00;;;;;;;17.40;11.45;;;13.80;99.90;;;;;;2080223;28;20044;-73
2021/08/24 00:29:01;;;;;;;18.45;11.18;;;13.80;99.90;;;;;;2071582;28;20401;-73
2021/08/24 00:30:03;;;;;;;16.38;10.38;;;13.90;99.90;;;;;;2072053;28;20092;-73
2021/08/24 00:31:04;;;;;;;14.15;9.65;;;13.80;99.90;;;;;;2080662;28;20036;-73
2021/08/24 00:32:05;;;;;;;19.17;11.38;;;13.80;99.90;;;;;;2080713;28;20022;-74
2021/08/24 00:33:10;;;;;;;17.85;12.23;;;13.80;99.90;;;;;;2080760;28;20017;-73
2021/08/24 00:34:11;;;;;;;20.63;13.05;;;13.80;99.90;;;;;;2080746;28;20171;-73
2021/08/24 00:35:11;;;;;;;24.20;13.05;;;13.80;99.90;;;;;;2080770;28;20029;-73
2021/08/24 00:36:14;;;;;;;27.13;14.00;;;13.80;99.90;;;;;;2080685;28;20473;-74
2021/08/24 00:37:15;;;;;;;23.05;13.30;;;13.70;99.90;;;;;;2080099;28;20041;-74
2021/08/24 00:38:19;;;;;;;19.58;12.10;;;13.70;99.90;;;;;;2080847;28;20111;-73
2021/08/24 00:39:20;;;;;;;19.63;12.02;;;13.70;99.90;;;;;;2071583;28;20026;-74
2021/08/24 00:40:21;;;;;;;25.77;13.40;;;13.80;99.90;;;;;;2072038;28;20090;-74
2021/08/24 00:41:22;;;;;;;21.20;12.65;;;13.70;99.90;;;;;;2080802;28;20033;-75
2021/08/24 00:42:22;;;;;;;16.88;11.52;;;13.70;99.90;;;;;;2063700;28;20034;-74
2021/08/24 00:43:25;;;;;;;18.05;11.23;;;13.70;99.90;;;;;;2063576;28;20545;-74
2021/08/24 00:44:25;;;;;;;16.88;11.00;;;13.70;99.90;;;;;;2071788;28;20030;-74
2021/08/24 00:45:26;;;;;;;20.20;11.90;;;13.70;99.90;;;;;;2071783;28;20374;-75
2021/08/24 00:46:36;;;;;;;18.42;11.68;;;13.70;99.90;;;;;;2079977;28;20029;-74
2021/08/24 00:47:40;;;;;;;13.45;10.23;;;13.70;99.90;;;;;;2080178;28;20824;-74
2021/08/24 00:48:42;;;;;;;22.48;12.77;;;13.70;99.90;;;;;;2079549;28;20392;-74
2021/08/24 00:49:44;;;;;;;16.63;11.68;;;13.80;99.90;;;;;;2079978;28;20044;-74
2021/08/24 00:50:48;;;;;;;25.30;13.63;;;13.70;99.90;;;;;;2080112;28;20386;-73
2021/08/24 00:52:04;;;;;;;20.60;12.98;;;13.70;99.90;;;;;;2080673;28;20064;-73
2021/08/24 00:53:09;;;;;;;17.45;12.35;;;13.70;99.90;;;;;;2071920;28;20033;-73
2021/08/24 00:54:25;;;;;;;17.60;11.90;;;13.70;99.90;;;;;;2072642;28;20525;-73
2021/08/24 00:55:26;;;;;;;21.15;13.00;;;13.70;99.90;;;;;;2080586;28;20397;-73
2021/08/24 00:56:30;;;;;;;16.02;11.25;;;13.80;99.90;;;;;;2080575;28;20566;-73
2021/08/24 00:57:30;;;;;;;18.02;11.63;;;13.70;99.90;;;;;;2080063;28;20029;-74
2021/08/24 00:58:31;;;;;;;17.35;11.63;;;13.70;99.90;;;;;;2080403;28;20104;-73
2021/08/24 00:59:31;;;;;;;21.33;13.18;;;13.70;99.90;;;;;;2071568;28;20205;-74
2021/08/24 01:00:34;;;;;;;17.27;12.65;;;13.70;99.90;;;;;;2071685;28;20056;-73
2021/08/24 01:01:34;;;;;;;17.05;11.93;;;13.70;99.90;;;;;;2080503;28;20033;-74
2021/08/24 01:02:35;;;;;;;16.90;11.68;;;13.70;99.90;;;;;;2080468;28;20536;-73
2021/08/24 01:03:39;;;;;;;14.85;11.25;;;13.70;99.90;;;;;;2080503;28;20021;-73
2021/08/24 01:04:39;;;;;;;13.90;10.38;;;13.70;99.90;;;;;;2080424;28;20057;-73
2021/08/24 01:05:42;;;;;;;14.77;10.52;;;13.70;99.90;;;;;;2080485;28;20064;-73
2021/08/24 01:06:54;;;;;;;12.35;9.98;;;13.70;99.90;;;;;;2080501;28;20063;-73
2021/08/24 01:08:01;;;;;;;12.45;9.65;;;13.70;99.90;;;;;;2080041;28;20053;-74
2021/08/24 01:09:11;;;;;;;19.60;10.77;;;13.70;99.90;;;;;;2071293;28;20068;-75
2021/08/24 01:10:22;;;;;;;15.07;10.13;;;13.60;99.90;;;;;;2071686;28;20022;-74
2021/08/24 01:11:42;;;;;;;13.20;9.90;;;13.60;99.90;;;;;;2073129;28;20037;-75
2021/08/24 01:12:46;;;;;;;18.30;9.27;;;13.70;99.90;;;;;;2071668;28;20030;-74
2021/08/24 01:13:56;;;;;;;16.60;10.38;;;13.60;99.90;;;;;;2063369;28;20386;-74
2021/08/24 01:15:21;;;;;;;13.90;9.52;;;13.50;99.90;;;;;;2066180;28;20563;-74
2021/08/24 01:16:39;;;;;;;18.88;11.55;;;13.50;99.90;;;;;;2071601;28;20034;-74
2021/08/24 01:17:54;;;;;;;14.35;10.82;;;13.50;99.90;;;;;;2073657;28;20367;-74
2021/08/24 01:19:31;;;;;;;18.83;11.50;;;13.50;99.90;;;;;;2080063;28;20025;-74
2021/08/24 01:20:56;;;;;;;14.88;10.77;;;13.50;99.90;;;;;;2080176;28;20029;-75
2021/08/24 01:22:19;;;;;;;19.70;11.95;;;13.60;99.90;;;;;;2080080;28;20057;-74
2021/08/24 01:23:31;;;;;;;26.45;14.32;;;13.60;99.90;;;;;;2080338;28;20034;-74
2021/08/24 01:24:41;;;;;;;28.95;16.20;;;13.60;99.90;;;;;;2080292;28;20034;-74
2021/08/24 01:25:58;;;;;;;28.10;15.98;;;13.70;99.90;;;;;;2081467;28;20056;-74
2021/08/24 01:27:10;;;;;;;20.92;13.18;;;13.70;99.90;;;;;;2081989;28;20030;-74
2021/08/24 01:28:13;;;;;;;20.40;13.32;;;13.70;99.90;;;;;;2064977;28;20031;-74
2021/08/24 01:30:04;;;;;;;18.38;13.05;;;13.80;99.90;;;;;;2065357;28;20030;-74
2021/08/24 01:31:23;;;;;;;21.20;13.55;;;13.80;99.90;;;;;;2073034;28;20132;-75
2021/08/24 01:32:56;;;;;;;20.67;13.30;;;13.80;99.90;;;;;;2075777;28;20026;-74
2021/08/24 01:34:40;;;;;;;19.95;12.80;;;13.80;99.90;;;;;;2082018;28;20018;-74
2021/08/24 01:36:05;;;;;;;19.08;12.02;;;13.90;99.90;;;;;;2056422;28;20170;-75
2021/08/24 01:37:13;;;;;;;24.00;14.55;;;13.90;99.90;;;;;;2081893;28;20033;-74
2021/08/24 01:38:29;;;;;;;16.88;12.68;;;13.90;99.90;;;;;;2081810;28;20021;-74
2021/08/24 01:39:47;;;;;;;16.05;12.00;;;13.90;99.90;;;;;;2081556;28;20033;-74
2021/08/24 01:41:06;;;;;;;18.08;12.35;;;13.90;99.90;;;;;;2073120;28;20034;-74
2021/08/24 01:42:15;;;;;;;19.20;12.43;;;13.90;99.90;;;;;;2075729;28;20493;-74
2021/08/24 01:43:31;;;;;;;22.10;13.65;;;13.90;99.90;;;;;;2081924;28;20053;-74
2021/08/24 01:44:38;;;;;;;19.05;12.57;;;13.90;99.90;;;;;;2081800;28;20507;-74
2021/08/24 01:45:48;;;;;;;18.45;13.02;;;13.90;99.90;;;;;;2073272;28;20034;-74
2021/08/24 01:46:59;;;;;;;15.23;11.75;;;13.90;99.90;;;;;;2066202;28;20040;-74
2021/08/24 01:48:08;;;;;;;15.93;11.90;;;13.90;99.90;;;;;;2074172;28;20072;-73
2021/08/24 01:49:13;;;;;;;20.98;14.10;;;13.90;99.90;;;;;;2081825;28;20029;-73
2021/08/24 01:50:31;;;;;;;22.13;14.98;;;13.90;99.90;;;;;;2081729;28;20033;-74
2021/08/24 01:51:40;;;;;;;22.15;15.10;;;13.90;99.90;;;;;;2081974;28;20034;-74
2021/08/24 01:52:52;;;;;;;32.15;18.88;;;13.90;99.90;;;;;;2081930;28;20029;-74
2021/08/24 01:54:13;;;;;;;35.28;21.33;;;13.80;99.90;;;;;;2082016;28;20049;-75
2021/08/24 01:55:24;;;;;;;27.63;18.13;;;13.80;99.90;;;;;;2081907;28;20030;-74
2021/08/24 01:56:30;;;;;;;37.10;20.17;;;13.80;99.90;;;;;;2081785;28;20037;-74
2021/08/24 01:57:44;;;;;;;30.65;19.70;;;13.80;99.90;;;;;;2081333;28;20036;-74
2021/08/24 01:58:54;;;;;;;29.40;19.70;;;13.90;99.90;;;;;;2072918;28;20029;-74
2021/08/24 02:00:00;;;;;;;29.90;20.23;;;13.80;99.90;;;;;;2066129;28;20049;-74
2021/08/24 02:01:05;;;;;;;36.67;21.73;;;13.80;99.90;;;;;;2073591;28;20533;-74
2021/08/24 02:02:10;;;;;;;39.25;22.55;;;13.80;99.90;;;;;;2081749;28;20033;-74
2021/08/24 02:03:15;;;;;;;44.47;24.83;;;13.80;99.90;;;;;;2081807;28;20489;-74
2021/08/24 02:04:22;;;;;;;31.92;21.50;;;13.80;99.90;;;;;;2081947;28;20028;-74
2021/08/24 02:05:40;;;;;;;26.10;20.08;;;13.80;99.90;;;;;;2081922;28;20052;-74
2021/08/24 02:06:43;;;;;;;53.60;27.27;;;13.80;99.90;;;;;;2081848;28;20029;-74
2021/08/24 02:07:45;;;;;;;35.30;22.83;;;13.80;99.90;;;;;;2072463;28;20050;-74
2021/08/24 02:08:50;;;;;;;42.22;23.63;;;13.80;99.90;;;;;;2072806;28;20030;-75
2021/08/24 02:09:57;;;;;;;32.92;22.33;;;13.80;99.90;;;;;;2081780;28;20049;-74
2021/08/24 02:11:01;;;;;;;36.15;22.35;;;13.80;99.90;;;;;;2081629;28;20041;-74
2021/08/24 02:12:04;;;;;;;33.83;21.52;;;13.80;99.90;;;;;;2081746;28;20810;-74
2021/08/24 02:13:06;;;;;;;34.60;22.85;;;13.80;99.90;;;;;;2081740;28;20807;-75
2021/08/24 02:14:11;;;;;;;27.45;20.30;;;13.80;99.90;;;;;;2081666;28;20862;-74
2021/08/24 02:15:12;;;;;;;33.85;22.33;;;13.80;99.90;;;;;;2072804;28;20074;-74
2021/08/24 02:16:19;;;;;;;44.40;25.98;;;13.80;99.90;;;;;;2072934;28;20504;-74
2021/08/24 02:17:23;;;;;;;40.95;25.13;;;13.80;99.90;;;;;;2081064;28;20040;-74
2021/08/24 02:18:28;;;;;;;35.70;24.65;;;13.80;99.90;;;;;;2081773;28;20026;-74
2021/08/24 02:19:39;;;;;;;32.53;23.33;;;13.80;99.90;;;;;;2081403;28;20035;-74
2021/08/24 02:20:43;;;;;;;;;;;13.80;99.90;;;;;;2081967;28;20084;-74
2021/08/24 02:21:50;;;;;;;52.65;29.90;;;13.90;99.90;;;;;;2081452;28;20010;-75
2021/08/24 02:22:56;;;;;;;42.55;28.27;;;13.80;99.90;;;;;;2081480;28;20033;-74
2021/08/24 02:24:04;;;;;;;41.25;27.45;;;13.80;99.90;;;;;;2072651;28;20026;-74
2021/08/24 02:25:16;;;;;;;33.83;25.27;;;13.80;99.90;;;;;;2073859;28;20536;-74
2021/08/24 02:26:20;;;;;;;40.20;25.52;;;13.80;99.90;;;;;;2081532;28;20024;-74
2021/08/24 02:27:27;;;;;;;35.78;24.40;;;13.80;99.90;;;;;;2080377;28;20057;-74
2021/08/24 02:28:35;;;;;;;44.20;27.52;;;13.80;99.90;;;;;;2080960;28;20497;-74
2021/08/24 02:29:36;;;;;;;37.35;24.75;;;13.80;99.90;;;;;;2081404;28;20041;-73
2021/08/24 02:30:43;;;;;;;33.95;23.27;;;13.80;99.90;;;;;;2081307;28;20059;-73
2021/08/24 02:32:09;;;;;;;36.35;23.92;;;13.80;99.90;;;;;;2081503;28;20046;-73
2021/08/24 02:33:12;;;;;;;33.53;22.60;;;13.80;99.90;;;;;;2072832;28;20022;-73
2021/08/24 02:34:15;;;;;;;37.70;24.17;;;13.80;99.90;;;;;;2073012;28;20022;-73
2021/08/24 02:35:39;;;;;;;30.98;21.85;;;13.80;99.90;;;;;;2081509;28;20057;-73
2021/08/24 02:36:49;;;;;;;28.23;21.10;;;13.80;99.90;;;;;;2081102;28;20018;-73
2021/08/24 02:37:59;;;;;;;29.15;21.17;;;13.80;99.90;;;;;;2080858;28;20026;-73
2021/08/24 02:39:11;;;;;;;29.02;20.55;;;13.80;99.90;;;;;;2072342;28;20028;-73
2021/08/24 02:40:14;;;;;;;26.60;20.02;;;13.80;99.90;;;;;;2074107;28;20088;-73
2021/08/24 02:41:26;;;;;;;35.25;23.20;;;13.90;99.90;;;;;;2081376;28;20045;-73
2021/08/24 02:42:40;;;;;;;33.40;20.88;;;13.80;99.90;;;;;;2081524;28;20053;-73
2021/08/24 02:43:59;;;;;;;27.67;19.63;;;13.80;99.90;;;;;;2081331;28;20484;-74
2021/08/24 02:45:09;;;;;;;21.30;17.52;;;13.80;99.90;;;;;;2081418;28;20389;-73
2021/08/24 02:46:15;;;;;;;33.03;19.63;;;13.80;99.90;;;;;;2072517;28;20497;-73
2021/08/24 02:47:16;;;;;;;28.35;19.45;;;13.70;99.90;;;;;;2073023;28;20026;-73
2021/08/24 02:48:19;;;;;;;26.63;18.55;;;13.70;99.90;;;;;;2081451;28;20027;-73
2021/08/24 02:49:25;;;;;;;33.97;20.77;;;13.70;99.90;;;;;;2080831;28;20064;-73
2021/08/24 02:50:26;;;;;;;31.80;20.88;;;13.70;99.90;;;;;;2081238;28;20045;-74
2021/08/24 02:51:27;;;;;;;31.25;21.35;;;13.70;99.90;;;;;;2081353;28;20021;-73
2021/08/24 02:52:29;;;;;;;30.20;20.90;;;13.70;99.90;;;;;;2081255;28;20021;-73
2021/08/24 02:53:33;;;;;;;28.70;20.70;;;13.70;99.90;;;;;;2080826;28;20556;-73
2021/08/24 02:54:37;;;;;;;33.28;20.52;;;13.60;99.90;;;;;;2080818;28;20057;-73
2021/08/24 02:55:38;;;;;;;30.23;21.05;;;13.70;99.90;;;;;;2072502;28;20033;-73
2021/08/24 02:56:39;;;;;;;31.75;20.83;;;13.60;99.90;;;;;;2072614;28;20079;-73
2021/08/24 02:57:40;;;;;;;26.40;19.35;;;13.70;99.90;;;;;;2072095;28;20029;-73
2021/08/24 02:58:40;;;;;;;29.77;21.17;;;13.60;99.90;;;;;;2064061;28;20034;-73
2021/08/24 02:59:41;;;;;;;30.48;21.48;;;13.60;99.90;;;;;;2064309;28;20374;-73
2021/08/24 03:00:42;;;;;;;34.25;22.90;;;13.60;99.90;;;;;;2072328;28;20129;-73
2021/08/24 03:01:43;;;;;;;30.08;21.35;;;13.60;99.90;;;;;;2072231;28;20129;-73
2021/08/24 03:02:44;;;;;;;41.80;23.30;;;13.60;99.90;;;;;;2081218;28;20036;-74
2021/08/24 03:03:44;;;;;;;37.33;21.92;;;13.70;99.90;;;;;;2081294;28;20030;-74
2021/08/24 03:04:45;;;;;;;39.40;22.77;;;13.70;99.90;;;;;;2081341;28;20025;-74
2021/08/24 03:05:45;;;;;;;27.60;20.27;;;13.70;99.90;;;;;;2081286;28;20164;-74
2021/08/24 03:06:48;;;;;;;40.10;24.17;;;13.70;99.90;;;;;;2081280;28;20103;-75
2021/08/24 03:07:49;;;;;;;34.42;22.10;;;13.70;99.90;;;;;;2080746;28;20116;-74
2021/08/24 03:08:50;;;;;;;28.63;21.30;;;13.60;99.90;;;;;;2081090;28;20025;-73
2021/08/24 03:09:50;;;;;;;40.90;24.92;;;13.60;99.90;;;;;;2081245;28;20029;-74
2021/08/24 03:10:52;;;;;;;46.22;26.10;;;13.60;99.90;;;;;;2080891;28;20450;-73
2021/08/24 03:12:30;;;;;;;33.03;22.73;;;13.60;99.90;;;;;;2081505;28;20056;-74
2021/08/24 03:13:43;;;;;;;28.30;20.75;;;13.60;99.90;;;;;;2057815;28;20031;-74
2021/08/24 03:14:50;;;;;;;40.00;22.23;;;13.60;99.90;;;;;;2064270;28;20490;-74
2021/08/24 03:16:17;;;;;;;29.20;20.77;;;13.60;99.90;;;;;;2073560;28;20049;-74
2021/08/24 03:17:46;;;;;;;26.90;19.33;;;13.60;99.90;;;;;;2080765;28;20032;-74
2021/08/24 03:18:51;;;;;;;28.58;19.95;;;13.60;99.90;;;;;;2081280;28;20746;-74
2021/08/24 03:19:56;;;;;;;27.35;20.60;;;13.60;99.90;;;;;;2081339;28;20021;-74
2021/08/24 03:21:00;;;;;;;32.05;21.73;;;13.60;99.90;;;;;;2081201;28;20498;-74
2021/08/24 03:22:03;;;;;;;28.02;20.85;;;13.60;99.90;;;;;;2081522;28;20701;-74
2021/08/24 03:23:06;;;;;;;39.20;23.23;;;13.60;99.90;;;;;;2081487;28;20098;-74
2021/08/24 03:24:11;;;;;;;27.50;20.55;;;13.60;99.90;;;;;;2081466;28;20032;-74
2021/08/24 03:25:13;;;;;;;26.08;20.45;;;13.60;99.90;;;;;;2081471;28;20033;-73
2021/08/24 03:26:20;;;;;;;28.17;20.45;;;13.60;99.90;;;;;;2081385;28;20048;-74
2021/08/24 03:27:21;;;;;;;30.45;20.63;;;13.60;99.90;;;;;;2072052;28;20040;-74
2021/08/24 03:28:24;;;;;;;27.58;20.38;;;13.60;99.90;;;;;;2072327;28;20034;-75
2021/08/24 03:29:24;;;;;;;23.35;19.50;;;13.60;99.90;;;;;;2072189;28;20042;-73
2021/08/24 03:30:25;;;;;;;34.08;21.98;;;13.60;99.90;;;;;;2064453;28;20027;-73
2021/08/24 03:31:28;;;;;;;28.90;20.35;;;13.60;99.90;;;;;;2080336;28;20025;-73
2021/08/24 03:32:29;;;;;;;29.50;20.55;;;13.60;99.90;;;;;;2080727;28;20091;-73
2021/08/24 03:33:29;;;;;;;24.73;19.63;;;13.60;99.90;;;;;;2081270;28;20030;-74
2021/08/24 03:34:30;;;;;;;24.05;19.00;;;13.50;99.90;;;;;;2081086;28;20034;-73
2021/08/24 03:35:31;;;;;;;36.00;21.70;;;13.60;99.90;;;;;;2081058;28;20045;-73
2021/08/24 03:36:32;;;;;;;27.25;19.75;;;13.60;99.90;;;;;;2072605;28;20040;-74
2021/08/24 03:37:32;;;;;;;26.40;19.50;;;13.50;99.90;;;;;;2072010;28;20030;-73
2021/08/24 03:38:33;;;;;;;25.23;19.10;;;13.50;99.90;;;;;;2081071;28;20532;-74
2021/08/24 03:39:34;;;;;;;26.33;19.73;;;13.50;99.90;;;;;;2080748;28;20123;-74
2021/08/24 03:40:35;;;;;;;25.13;18.75;;;13.50;99.90;;;;;;2081113;28;20108;-73
2021/08/24 03:41:35;;;;;;;28.38;21.13;;;13.50;99.90;;;;;;2080945;28;20030;-73
2021/08/24 03:42:36;;;;;;;41.05;22.90;;;13.50;99.90;;;;;;2072114;28;20022;-73
2021/08/24 03:43:38;;;;;;;31.80;21.55;;;13.50;99.90;;;;;;2064279;28;20097;-72
2021/08/24 03:44:39;;;;;;;30.77;19.15;;;13.50;99.90;;;;;;2072276;28;20604;-72
2021/08/24 03:45:39;;;;;;;30.38;18.83;;;13.40;99.90;;;;;;2080890;28;20037;-72
2021/08/24 03:46:40;;;;;;;34.58;20.40;;;13.40;99.90;;;;;;2071998;28;20025;-72
2021/08/24 03:47:41;;;;;;;35.90;21.80;;;13.40;99.90;;;;;;2076673;28;20022;-72
2021/08/24 03:48:42;;;;;;;29.90;19.70;;;13.30;99.90;;;;;;2076054;28;20041;-72
2021/08/24 03:49:43;;;;;;;31.98;19.50;;;13.30;99.90;;;;;;2076714;28;20153;-72
2021/08/24 03:50:44;;;;;;;20.20;15.70;;;13.20;99.90;;;;;;2082039;28;20025;-72
2021/08/24 03:51:44;;;;;;;24.80;15.63;;;13.30;99.90;;;;;;2080919;28;20624;-72
2021/08/24 03:52:45;;;;;;;18.45;14.35;;;13.30;99.90;;;;;;2081039;28;20029;-72
2021/08/24 03:53:46;;;;;;;28.45;17.15;;;13.30;99.90;;;;;;2080666;28;20056;-72
2021/08/24 03:54:46;;;;;;;19.95;15.10;;;13.20;99.90;;;;;;2071791;28;20121;-72
2021/08/24 03:55:47;;;;;;;26.20;16.38;;;13.20;99.90;;;;;;2071921;28;20021;-72
2021/08/24 03:56:47;;;;;;;26.77;15.88;;;13.20;99.90;;;;;;2080752;28;20025;-72
2021/08/24 03:57:48;;;;;;;22.80;14.48;;;13.30;99.90;;;;;;2080307;28;20022;-72
2021/08/24 03:58:49;;;;;;;21.33;13.68;;;13.20;99.90;;;;;;2080495;28;20022;-72
2021/08/24 03:59:56;;;;;;;16.67;13.30;;;13.30;99.90;;;;;;2080756;28;20052;-72
2021/08/24 04:00:57;;;;;;;16.25;12.27;;;13.30;99.90;;;;;;2080729;28;20029;-73
2021/08/24 04:01:57;;;;;;;13.48;12.02;;;13.30;99.90;;;;;;2072449;28;20030;-72
2021/08/24 04:02:58;;;;;;;25.05;13.25;;;13.30;99.90;;;;;;2071798;28;20036;-72
2021/08/24 04:03:59;;;;;;;18.55;12.30;;;13.30;99.90;;;;;;2080704;28;20512;-72
2021/08/24 04:05:03;;;;;;;16.20;12.13;;;13.30;99.90;;;;;;2071925;28;20060;-72
2021/08/24 04:06:04;;;;;;;19.85;12.35;;;13.30;99.90;;;;;;2072457;28;20033;-72
2021/08/24 04:07:04;;;;;;;31.58;15.95;;;13.30;99.90;;;;;;2080770;28;20025;-72
2021/08/24 04:08:06;;;;;;;19.95;13.60;;;13.30;99.90;;;;;;2080262;28;20033;-72
2021/08/24 04:09:07;;;;;;;23.08;14.68;;;13.30;99.90;;;;;;2080277;28;20099;-72
2021/08/24 04:10:08;;;;;;;24.73;15.95;;;13.30;99.90;;;;;;2072032;28;20030;-71
2021/08/24 04:11:09;;;;;;;24.17;15.13;;;13.30;99.90;;;;;;2071726;28;20398;-72
2021/08/24 04:12:10;;;;;;;23.33;15.75;;;13.30;99.90;;;;;;2072026;28;20030;-72
2021/08/24 04:13:11;;;;;;;21.70;15.00;;;13.30;99.90;;;;;;2080676;28;20156;-72
2021/08/24 04:14:11;;;;;;;23.00;15.75;;;13.30;99.90;;;;;;2080671;28;20080;-72
2021/08/24 04:15:12;;;;;;;18.65;14.27;;;13.30;99.90;;;;;;2080642;28;20077;-72
2021/08/24 04:16:13;;;;;;;16.08;13.48;;;13.30;99.90;;;;;;2080461;28;20017;-71
2021/08/24 04:17:14;;;;;;;19.27;13.88;;;13.30;99.90;;;;;;2080065;28;20044;-72
2021/08/24 04:18:15;;;;;;;20.92;12.90;;;13.30;99.90;;;;;;2080591;28;20025;-72
2021/08/24 04:19:16;;;;;;;17.58;12.35;;;13.30;99.90;;;;;;2071692;28;20501;-72
2021/08/24 04:20:17;;;;;;;23.27;14.20;;;13.30;99.90;;;;;;2072134;28;20093;-72
2021/08/24 04:21:19;;;;;;;17.45;12.85;;;13.30;99.90;;;;;;2080572;28;20029;-72
2021/08/24 04:22:22;;;;;;;17.73;12.50;;;13.30;99.90;;;;;;2071645;28;20042;-72
2021/08/24 04:23:23;;;;;;;17.05;12.88;;;13.30;99.90;;;;;;2071997;28;20030;-72
2021/08/24 04:24:24;;;;;;;17.48;12.13;;;13.30;99.90;;;;;;2080423;28;20564;-71
2021/08/24 04:25:24;;;;;;;16.85;13.07;;;13.30;99.90;;;;;;2080645;28;20038;-72
2021/08/24 04:26:26;;;;;;;21.73;14.50;;;13.30;99.90;;;;;;2063594;28;20088;-71
2021/08/24 04:27:28;;;;;;;15.15;12.38;;;13.20;99.90;;;;;;2063476;28;20042;-72
2021/08/24 04:28:29;;;;;;;21.20;13.88;;;13.30;99.90;;;;;;2079865;28;20041;-72
2021/08/24 04:29:31;;;;;;;19.40;13.30;;;13.20;99.90;;;;;;2080044;28;20025;-71
2021/08/24 04:30:31;;;;;;;18.05;12.88;;;13.20;99.90;;;;;;2080384;28;20068;-72
2021/08/24 04:31:36;;;;;;;23.58;14.02;;;13.20;99.90;;;;;;2071757;28;20505;-72
2021/08/24 04:32:40;;;;;;;20.13;13.07;;;13.20;99.90;;;;;;2072290;28;20026;-72
2021/08/24 04:33:41;;;;;;;20.45;13.32;;;13.20;99.90;;;;;;2080523;28;20084;-72
2021/08/24 04:34:42;;;;;;;17.08;11.80;;;13.20;99.90;;;;;;2080708;28;20037;-71
2021/08/24 04:35:42;;;;;;;13.20;10.40;;;13.20;99.90;;;;;;2071805;28;20029;-71
2021/08/24 04:36:43;;;;;;;14.38;10.85;;;13.20;99.90;;;;;;2071711;28;20105;-71
2021/08/24 04:37:44;;;;;;;18.70;12.18;;;13.30;99.90;;;;;;2071248;28;20133;-72
2021/08/24 04:38:44;;;;;;;17.10;10.55;;;13.20;99.90;;;;;;2071369;28;20046;-72
2021/08/24 04:39:45;;;;;;;16.90;10.63;;;13.20;99.90;;;;;;2080362;28;20038;-72
2021/08/24 04:40:46;;;;;;;16.20;10.23;;;13.20;99.90;;;;;;2071724;28;20102;-72
2021/08/24 04:41:47;;;;;;;20.02;11.30;;;13.20;99.90;;;;;;2071740;28;20084;-72
2021/08/24 04:42:48;;;;;;;14.80;10.32;;;13.20;99.90;;;;;;2071581;28;20067;-72
2021/08/24 04:43:48;;;;;;;16.48;10.93;;;13.20;99.90;;;;;;2071514;28;20052;-73
2021/08/24 04:44:49;;;;;;;16.38;10.05;;;13.20;99.90;;;;;;2071816;28;20046;-72
2021/08/24 04:45:50;;;;;;;19.10;10.75;;;13.20;99.90;;;;;;2080621;28;20087;-73
2021/08/24 04:46:50;;;;;;;14.02;10.73;;;13.20;99.90;;;;;;2080675;28;20128;-72
2021/08/24 04:47:51;;;;;;;19.23;10.82;;;13.20;99.90;;;;;;2080304;28;20095;-73
2021/08/24 04:48:51;;;;;;;19.45;11.20;;;13.20;99.90;;;;;;2080146;28;20025;-73
2021/08/24 04:49:52;;;;;;;14.15;10.25;;;13.20;99.90;;;;;;2080678;28;20437;-72
2021/08/24 04:50:53;;;;;;;16.10;10.48;;;13.10;99.90;;;;;;2080423;28;20384;-73
2021/08/24 04:51:54;;;;;;;13.13;9.52;;;13.20;99.90;;;;;;2080612;28;20112;-72
2021/08/24 04:52:54;;;;;;;12.85;9.80;;;13.20;99.90;;;;;;2080706;28;20083;-72
2021/08/24 04:53:55;;;;;;;13.40;10.38;;;13.20;99.90;;;;;;2080476;28;20033;-73
2021/08/24 04:54:55;;;;;;;23.73;12.80;;;13.20;99.90;;;;;;2080476;28;20107;-73
2021/08/24 04:55:57;;;;;;;22.02;12.98;;;13.20;99.90;;;;;;2080398;28;20116;-73
2021/08/24 04:56:57;;;;;;;15.32;11.48;;;13.20;99.90;;;;;;2080718;28;20112;-72
2021/08/24 04:57:58;;;;;;;21.17;12.63;;;13.20;99.90;;;;;;2080108;28;20022;-73
2021/08/24 04:58:59;;;;;;;19.40;13.18;;;13.10;99.90;;;;;;2080361;28;20511;-73
2021/08/24 05:00:00;;;;;;;24.80;13.00;;;13.10;99.90;;;;;;2080714;28;20022;-73
2021/08/24 05:01:00;;;;;;;17.25;11.43;;;13.10;99.90;;;;;;2073424;28;20029;-73
2021/08/24 05:02:01;;;;;;;17.20;11.70;;;13.10;99.90;;;;;;2073420;28;20508;-73
2021/08/24 05:03:02;;;;;;;24.55;13.43;;;13.20;99.90;;;;;;2082137;28;20465;-73
2021/08/24 05:04:03;;;;;;;16.85;11.77;;;13.20;99.90;;;;;;2082223;28;20053;-72
2021/08/24 05:05:05;;;;;;;23.17;13.50;;;13.20;99.90;;;;;;2082303;28;20500;-72
2021/08/24 05:06:06;;;;;;;20.70;12.38;;;13.10;99.90;;;;;;2082235;28;20059;-72
2021/08/24 05:07:06;;;;;;;16.85;11.70;;;13.20;99.90;;;;;;2082273;28;20534;-72
2021/08/24 05:08:07;;;;;;;22.02;13.38;;;13.20;99.90;;;;;;2081737;28;20093;-73
2021/08/24 05:09:08;;;;;;;17.90;12.45;;;13.20;99.90;;;;;;2082011;28;20021;-72
2021/08/24 05:10:09;;;;;;;19.88;12.93;;;13.20;99.90;;;;;;2082346;28;20029;-73
2021/08/24 05:11:11;;;;;;;24.75;13.18;;;13.20;99.90;;;;;;2082244;28;20022;-72
2021/08/24 05:12:11;;;;;;;24.25;13.32;;;13.20;99.90;;;;;;2082191;28;20021;-73
2021/08/24 05:13:12;;;;;;;20.35;14.02;;;13.20;99.90;;;;;;2084500;28;20068;-72
2021/08/24 05:14:13;;;;;;;24.20;14.57;;;13.20;99.90;;;;;;2073665;28;20026;-72
2021/08/24 05:15:13;;;;;;;19.67;14.32;;;13.10;99.90;;;;;;2065245;28;20026;-73
2021/08/24 05:16:14;;;;;;;23.05;14.88;;;13.10;99.90;;;;;;2065505;28;20022;-72
2021/08/24 05:17:15;;;;;;;20.50;14.20;;;13.10;99.90;;;;;;2073014;28;20523;-71
2021/08/24 05:18:15;;;;;;;23.25;14.25;;;13.10;99.90;;;;;;2082238;28;20022;-72
2021/08/24 05:19:16;;;;;;;19.83;14.63;;;13.10;99.90;;;;;;2082101;28;20021;-72
2021/08/24 05:20:17;;;;;;;22.90;14.85;;;13.10;99.90;;;;;;2082352;28;20080;-72
2021/08/24 05:21:18;;;;;;;15.50;13.43;;;13.10;99.90;;;;;;2082542;28;20152;-72
2021/08/24 05:22:19;;;;;;;18.85;13.95;;;13.10;99.90;;;;;;2082465;28;20013;-72
2021/08/24 05:23:19;;;;;;;16.25;13.30;;;13.10;99.90;;;;;;2083013;28;20088;-73
2021/08/24 05:24:20;;;;;;;21.15;14.40;;;13.20;99.90;;;;;;2091859;28;20021;-72
2021/08/24 05:25:23;;;;;;;26.75;15.30;;;13.20;99.90;;;;;;2091587;28;19997;-71
2021/08/24 05:26:23;;;;;;;19.98;14.73;;;13.20;99.90;;;;;;2092912;28;20039;-72
2021/08/24 05:27:25;;;;;;;19.48;13.63;;;13.20;99.90;;;;;;2090746;28;20036;-73
2021/08/24 05:28:25;;;;;;;15.32;13.10;;;13.30;99.90;;;;;;2091957;28;20034;-71